Terminal Aerodrome Forecast
Issued by NWS

Home | Current Version | Previous Version | Text Only | Print | Product List | Glossary On
Versions: 1 2 3 4 5 6 7 8 9 10 11 12 13 14 15
000
FTAK31 PAFA 301122
TAFAQT
TAF
PAQT 301122Z 3012/3112 VRB06KT P6SM VCSH SCT035 BKN050
     FM301500 21008KT P6SM SCT035 BKN050
     FM301800 24010KT P6SM SCT035 BKN050 BKN100
     FM302100 27010KT P6SM VCSH SCT035 BKN050 OVC100
     FM310000 30008KT P6SM VCSH SCT025 BKN035 OVC050=

USA.gov is the U.S. government's official web portal to all federal, state and local government web resources and services.